createdAt,value
2018-08-10T00:02:15.243Z,100469.69
2018-08-10T00:07:10.212Z,100491.17
2018-08-10T00:09:38.247Z,100487.12
2018-08-10T00:12:06.070Z,100493.31
2018-08-10T00:14:34.051Z,100486.80
2018-08-10T00:17:01.883Z,100493.84
2018-08-10T00:19:29.610Z,100494.36
2018-08-10T00:21:57.314Z,100498.49
2018-08-10T00:24:25.058Z,100499.91
2018-08-10T00:26:52.809Z,100498.13
2018-08-10T00:29:20.578Z,100502.48
2018-08-10T00:31:48.346Z,100505.55
2018-08-10T00:34:16.059Z,100513.22
2018-08-10T00:36:43.780Z,100519.38
2018-08-10T00:39:12.864Z,100525.07
2018-08-10T00:41:40.907Z,100532.61
2018-08-10T00:44:08.705Z,100537.47
2018-08-10T00:46:36.431Z,100540.28
2018-08-10T00:49:04.343Z,100539.94
2018-08-10T00:51:32.086Z,100535.03
2018-08-10T00:53:59.911Z,100539.83
2018-08-10T00:56:27.730Z,100538.72
2018-08-10T00:58:55.419Z,100534.38
2018-08-10T01:01:23.331Z,100536.69
2018-08-10T01:03:51.531Z,100541.31
2018-08-10T01:06:19.235Z,100545.59
2018-08-10T01:08:46.991Z,100551.01
2018-08-10T01:11:15.101Z,100551.06
2018-08-10T01:13:43.358Z,100556.52
2018-08-10T01:16:11.162Z,100553.86
2018-08-10T01:18:38.866Z,100561.27
2018-08-10T01:21:12.044Z,100566.27
2018-08-10T01:23:39.751Z,100568.08
2018-08-10T01:26:07.487Z,100566.08
2018-08-10T01:28:35.287Z,100563.05
2018-08-10T01:31:03.283Z,100566.27
2018-08-10T01:33:31.046Z,100568.84
2018-08-10T01:35:58.714Z,100577.93
2018-08-10T01:38:26.426Z,100576.19
2018-08-10T01:40:54.111Z,100575.75
2018-08-10T01:43:21.818Z,100587.49
2018-08-10T01:45:49.575Z,100588.01
2018-08-10T01:48:17.264Z,100584.98
2018-08-10T01:50:45.282Z,100578.89
2018-08-10T01:53:12.976Z,100577.27
2018-08-10T01:55:40.656Z,100579.77
2018-08-10T01:58:08.323Z,100580.95
2018-08-10T02:00:36.026Z,100580.33
2018-08-10T02:03:03.794Z,100581.40
2018-08-10T02:05:32.409Z,100585.83
2018-08-10T02:08:00.222Z,100585.23
2018-08-10T02:10:28.278Z,100590.44
2018-08-10T02:12:56.940Z,100589.41
2018-08-10T02:15:24.603Z,100588.59
2018-08-10T02:17:52.238Z,100588.81
2018-08-10T02:20:24.836Z,100595.68
2018-08-10T02:22:52.501Z,100600.91
2018-08-10T02:25:21.329Z,100604.59
2018-08-10T02:27:49.662Z,100601.08
2018-08-10T02:30:18.859Z,100596.16
2018-08-10T02:32:47.336Z,100596.98
2018-08-10T02:35:14.990Z,100598.12
2018-08-10T02:37:42.733Z,100603.32
2018-08-10T02:40:17.295Z,100600.16
2018-08-10T02:42:45.896Z,100598.73
2018-08-10T02:45:13.917Z,100606.22
2018-08-10T02:47:41.666Z,100608.06
2018-08-10T02:50:09.434Z,100610.81
2018-08-10T02:52:37.959Z,100607.34
2018-08-10T02:55:06.871Z,100612.28
2018-08-10T02:57:34.825Z,100611.98
2018-08-10T03:00:03.087Z,100617.70
2018-08-10T03:02:30.765Z,100620.98
2018-08-10T03:04:58.413Z,100620.38
2018-08-10T03:07:26.042Z,100634.69
2018-08-10T03:09:53.755Z,100628.76
2018-08-10T03:12:21.662Z,100638.14
2018-08-10T03:14:49.285Z,100634.88
2018-08-10T03:17:16.937Z,100631.29
2018-08-10T03:19:44.562Z,100632.83
2018-08-10T03:22:12.326Z,100628.55
2018-08-10T03:24:39.870Z,100630.59
2018-08-10T03:27:07.714Z,100636.41
2018-08-10T03:29:35.675Z,100641.52
2018-08-10T03:32:03.567Z,100641.51
2018-08-10T03:34:31.269Z,100639.97
2018-08-10T03:36:59.205Z,100645.57
2018-08-10T03:39:26.896Z,100647.71
2018-08-10T03:41:54.582Z,100650.19
2018-08-10T03:44:22.237Z,100652.62
2018-08-10T03:46:49.849Z,100658.44
2018-08-10T03:49:18.032Z,100660.78
2018-08-10T03:51:45.781Z,100662.41
2018-08-10T03:54:17.213Z,100670.24
2018-08-10T03:56:44.846Z,100666.08
2018-08-10T03:59:12.472Z,100665.77
2018-08-10T04:01:40.069Z,100665.95
2018-08-10T04:04:07.718Z,100675.13
2018-08-10T04:06:35.329Z,100683.17
2018-08-10T04:09:08.186Z,100681.31
2018-08-10T04:11:35.877Z,100688.36
2018-08-10T04:14:03.878Z,100682.14
2018-08-10T04:16:31.476Z,100681.77
2018-08-10T04:18:59.119Z,100684.92
2018-08-10T04:21:26.774Z,100690.66
2018-08-10T04:23:54.503Z,100694.33
2018-08-10T04:26:22.142Z,100698.98
2018-08-10T04:28:49.754Z,100695.22
2018-08-10T04:31:17.378Z,100705.20
2018-08-10T04:33:45.271Z,100705.05
2018-08-10T04:36:13.003Z,100712.66
2018-08-10T04:38:40.615Z,100723.52
2018-08-10T04:41:08.338Z,100717.52
2018-08-10T04:43:36.118Z,100723.76
2018-08-10T04:46:03.902Z,100729.16
2018-08-10T04:48:31.609Z,100730.64
2018-08-10T04:50:59.218Z,100733.70
2018-08-10T04:53:26.946Z,100737.81
2018-08-10T04:55:54.623Z,100740.23
2018-08-10T04:58:22.242Z,100744.89
2018-08-10T05:00:49.923Z,100748.79
2018-08-10T05:03:17.793Z,100753.31
2018-08-10T05:05:49.429Z,100758.31
2018-08-10T05:08:17.057Z,100764.09
2018-08-10T05:10:44.770Z,100761.40
2018-08-10T05:13:12.699Z,100767.41
2018-08-10T05:15:40.429Z,100766.30
2018-08-10T05:18:08.070Z,100764.53
2018-08-10T05:20:35.702Z,100766.27
2018-08-10T05:23:03.375Z,100769.28
2018-08-10T05:25:31.074Z,100773.20
2018-08-10T05:27:58.698Z,100780.09
2018-08-10T05:30:26.386Z,100778.38
2018-08-10T05:32:54.071Z,100781.34
2018-08-10T05:35:21.818Z,100788.67
2018-08-10T05:37:49.485Z,100785.52
2018-08-10T05:40:17.133Z,100793.78
2018-08-10T05:42:44.792Z,100793.84
2018-08-10T05:45:12.445Z,100795.75
2018-08-10T05:47:40.038Z,100786.28
2018-08-10T05:50:07.717Z,100791.77
2018-08-10T05:52:35.506Z,100791.54
2018-08-10T05:55:03.913Z,100790.14
2018-08-10T05:57:31.592Z,100791.89
2018-08-10T05:59:59.209Z,100792.70
2018-08-10T06:02:26.916Z,100797.84
2018-08-10T06:04:54.542Z,100802.60
2018-08-10T06:07:22.288Z,100802.41
2018-08-10T06:09:49.927Z,100808.95
2018-08-10T06:12:18.213Z,100801.88
2018-08-10T06:14:45.954Z,100805.12
2018-08-10T06:17:13.599Z,100810.73
2018-08-10T06:19:41.299Z,100806.28
2018-08-10T06:22:08.928Z,100813.03
2018-08-10T06:24:36.559Z,100816.77
2018-08-10T06:27:04.309Z,100810.13
2018-08-10T06:29:31.989Z,100806.89
2018-08-10T06:31:59.614Z,100808.10
2018-08-10T06:34:31.206Z,100810.38
2018-08-10T06:36:58.906Z,100806.97
2018-08-10T06:39:26.556Z,100810.06
2018-08-10T06:41:54.183Z,100805.97
2018-08-10T06:44:21.794Z,100808.52
2018-08-10T06:46:49.406Z,100811.05
2018-08-10T06:49:17.118Z,100810.59
2018-08-10T06:51:44.754Z,100810.97
2018-08-10T06:54:12.454Z,100810.95
2018-08-10T06:56:40.094Z,100804.09
2018-08-10T06:59:07.761Z,100803.43
2018-08-10T07:01:35.585Z,100806.86
2018-08-10T07:04:03.128Z,100807.00
2018-08-10T07:06:30.741Z,100811.70
2018-08-10T07:08:58.409Z,100808.02
2018-08-10T07:11:26.090Z,100816.61
2018-08-10T07:13:53.744Z,100812.23
2018-08-10T07:16:21.341Z,100817.70
2018-08-10T07:18:49.121Z,100825.46
2018-08-10T07:21:16.802Z,100822.03
2018-08-10T07:23:44.429Z,100820.27
2018-08-10T07:26:12.173Z,100818.97
2018-08-10T07:28:39.800Z,100820.55
2018-08-10T07:31:07.562Z,100821.40
2018-08-10T07:33:35.236Z,100818.72
2018-08-10T07:36:02.854Z,100829.08
2018-08-10T07:38:30.499Z,100819.01
2018-08-10T07:40:58.141Z,100825.24
2018-08-10T07:43:26.820Z,100826.69
2018-08-10T07:45:54.457Z,100821.68
2018-08-10T07:48:22.040Z,100814.39
2018-08-10T07:50:49.673Z,100816.69
2018-08-10T07:53:17.281Z,100811.28
2018-08-10T07:55:45.049Z,100814.11
2018-08-10T07:58:12.658Z,100817.63
2018-08-10T08:00:40.398Z,100814.24
2018-08-10T08:03:08.210Z,100815.52
2018-08-10T08:05:35.883Z,100819.23
2018-08-10T08:08:03.597Z,100816.48
2018-08-10T08:10:31.330Z,100819.72
2018-08-10T08:12:58.998Z,100811.98
2018-08-10T08:15:26.656Z,100819.08
2018-08-10T08:17:54.287Z,100813.26
2018-08-10T08:20:21.934Z,100812.91
2018-08-10T08:22:58.998Z,100813.63
2018-08-10T08:25:26.834Z,100812.77
2018-08-10T08:27:54.510Z,100809.43
2018-08-10T08:30:22.259Z,100808.02
2018-08-10T08:32:50.053Z,100803.77
2018-08-10T08:35:17.684Z,100802.02
2018-08-10T08:37:45.309Z,100808.50
2018-08-10T08:40:19.742Z,100803.48
2018-08-10T08:42:48.145Z,100805.38
2018-08-10T08:46:19.434Z,100810.53
2018-08-10T08:48:48.304Z,100806.44
2018-08-10T08:51:24.614Z,100805.75
2018-08-10T08:54:09.938Z,100805.34
2018-08-10T08:56:42.921Z,100803.98
2018-08-10T08:59:10.533Z,100809.95
2018-08-10T09:01:38.221Z,100812.14
2018-08-10T09:04:28.918Z,100804.06
2018-08-10T09:06:56.681Z,100793.97
2018-08-10T09:09:35.743Z,100798.35
2018-08-10T09:12:03.387Z,100793.30
2018-08-10T09:14:42.530Z,100793.30
2018-08-10T09:17:10.811Z,100784.69
2018-08-10T09:19:39.297Z,100780.41
2018-08-10T09:22:11.445Z,100780.72
2018-08-10T09:24:39.449Z,100780.45
2018-08-10T09:27:07.157Z,100782.34
2018-08-10T09:29:35.071Z,100779.91
2018-08-10T09:32:02.926Z,100782.27
2018-08-10T09:34:30.611Z,100782.13
2018-08-10T09:36:58.662Z,100786.08
2018-08-10T09:39:26.957Z,100789.37
2018-08-10T09:41:54.617Z,100781.79
2018-08-10T09:44:22.258Z,100777.97
2018-08-10T09:46:50.195Z,100781.28
2018-08-10T09:49:17.941Z,100777.50
2018-08-10T09:51:45.566Z,100781.58
2018-08-10T09:54:13.234Z,100774.94
2018-08-10T09:56:41.002Z,100784.56
2018-08-10T09:59:08.789Z,100780.31
2018-08-10T10:01:42.961Z,100772.63
2018-08-10T10:04:11.075Z,100778.57
2018-08-10T10:06:38.781Z,100776.23
2018-08-10T10:09:09.019Z,100765.66
2018-08-10T10:11:36.557Z,100766.61
2018-08-10T10:14:05.310Z,100765.92
2018-08-10T10:16:33.062Z,100766.39
2018-08-10T10:19:00.773Z,100758.50
2018-08-10T10:21:28.418Z,100762.19
2018-08-10T10:23:56.053Z,100761.82
2018-08-10T10:26:23.761Z,100754.44
2018-08-10T10:28:55.353Z,100754.31
2018-08-10T10:31:23.094Z,100756.52
2018-08-10T10:33:50.781Z,100757.66
2018-08-10T10:36:18.797Z,100761.55
2018-08-10T10:38:46.417Z,100758.67
2018-08-10T10:41:14.034Z,100757.59
2018-08-10T10:43:41.645Z,100748.25
2018-08-10T10:46:09.364Z,100752.09
2018-08-10T10:48:37.021Z,100749.48
2018-08-10T10:51:04.971Z,100751.78
2018-08-10T10:53:32.489Z,100744.56
2018-08-10T10:56:00.111Z,100743.38
2018-08-10T10:58:27.777Z,100743.77
2018-08-10T11:00:55.377Z,100735.95
2018-08-10T11:03:23.144Z,100729.83
2018-08-10T11:05:50.778Z,100728.16
2018-08-10T11:08:18.804Z,100729.49
2018-08-10T11:10:46.478Z,100730.64
2018-08-10T11:13:14.065Z,100726.86
2018-08-10T11:15:41.754Z,100726.56
2018-08-10T11:18:09.487Z,100723.06
2018-08-10T11:20:37.016Z,100725.80
2018-08-10T11:23:04.881Z,100718.59
2018-08-10T11:25:32.615Z,100721.86
2018-08-10T11:28:00.234Z,100721.22
2018-08-10T11:30:27.836Z,100713.14
2018-08-10T11:32:55.461Z,100707.58
2018-08-10T11:35:23.394Z,100712.44
2018-08-10T11:37:51.101Z,100704.61
2018-08-10T11:40:18.741Z,100709.11
2018-08-10T11:42:46.422Z,100702.42
2018-08-10T11:45:15.549Z,100706.77
2018-08-10T11:47:43.181Z,100693.30
2018-08-10T11:50:11.064Z,100703.73
2018-08-10T11:52:38.657Z,100702.28
2018-08-10T11:55:08.747Z,100703.00
2018-08-10T11:57:36.399Z,100707.34
2018-08-10T12:00:05.766Z,100708.91
2018-08-10T12:02:33.717Z,100698.97
2018-08-10T12:05:01.310Z,100695.61
2018-08-10T12:07:32.254Z,100691.33
2018-08-10T12:09:59.926Z,100692.45
2018-08-10T12:12:27.574Z,100693.86
2018-08-10T12:14:55.237Z,100689.42
2018-08-10T12:17:22.857Z,100677.95
2018-08-10T12:19:50.613Z,100680.66
2018-08-10T12:22:18.329Z,100676.41
2018-08-10T12:24:45.934Z,100676.14
2018-08-10T12:27:13.561Z,100673.33
2018-08-10T12:29:41.175Z,100672.46
2018-08-10T12:32:08.817Z,100670.81
2018-08-10T12:34:36.465Z,100671.92
2018-08-10T12:37:04.393Z,100670.75
2018-08-10T12:39:32.110Z,100664.96
2018-08-10T12:41:59.728Z,100665.36
2018-08-10T12:44:27.405Z,100669.09
2018-08-10T12:46:55.121Z,100667.31
2018-08-10T12:49:22.809Z,100665.28
2018-08-10T12:51:50.497Z,100666.44
2018-08-10T12:54:18.172Z,100668.73
2018-08-10T12:56:45.784Z,100658.73
2018-08-10T12:59:13.500Z,100659.80
2018-08-10T13:01:41.188Z,100662.23
2018-08-10T13:04:08.797Z,100653.19
2018-08-10T13:06:36.468Z,100650.72
2018-08-10T13:09:08.509Z,100644.13
2018-08-10T13:11:36.413Z,100649.50
2018-08-10T13:14:04.023Z,100640.98
2018-08-10T13:16:31.729Z,100646.63
2018-08-10T13:18:59.369Z,100641.95
2018-08-10T13:21:26.949Z,100646.87
2018-08-10T13:23:54.647Z,100641.55
2018-08-10T13:26:22.485Z,100646.70
2018-08-10T13:28:50.110Z,100645.06
2018-08-10T13:31:17.794Z,100645.56
2018-08-10T13:33:45.402Z,100650.14
2018-08-10T13:36:13.142Z,100648.86
2018-08-10T13:38:40.813Z,100637.27
2018-08-10T13:41:08.429Z,100629.67
2018-08-10T13:43:36.192Z,100628.34
2018-08-10T13:46:03.953Z,100627.48
2018-08-10T13:48:31.652Z,100627.83
2018-08-10T13:51:03.277Z,100626.47
2018-08-10T13:53:30.909Z,100621.32
2018-08-10T13:55:59.553Z,100615.17
2018-08-10T13:58:27.209Z,100619.58
2018-08-10T14:00:54.849Z,100618.77
2018-08-10T14:03:22.901Z,100612.97
2018-08-10T14:05:50.587Z,100607.11
2018-08-10T14:08:18.139Z,100599.78
2018-08-10T14:10:46.026Z,100610.72
2018-08-10T14:13:13.624Z,100599.52
2018-08-10T14:15:41.239Z,100602.63
2018-08-10T14:18:08.892Z,100597.06
2018-08-10T14:20:36.486Z,100593.30
2018-08-10T14:23:04.159Z,100587.70
2018-08-10T14:25:31.788Z,100588.56
2018-08-10T14:27:59.539Z,100577.51
2018-08-10T14:30:27.128Z,100581.16
2018-08-10T14:32:54.861Z,100583.73
2018-08-10T14:35:22.553Z,100582.05
2018-08-10T14:37:50.205Z,100569.06
2018-08-10T14:40:17.876Z,100566.34
2018-08-10T14:42:45.537Z,100569.70
2018-08-10T14:45:14.246Z,100570.42
2018-08-10T14:47:41.905Z,100577.07
2018-08-10T14:50:11.765Z,100574.94
2018-08-10T14:52:39.515Z,100566.80
2018-08-10T14:55:10.978Z,100564.66
2018-08-10T14:57:38.804Z,100559.50
2018-08-10T15:00:13.577Z,100565.01
2018-08-10T15:02:41.269Z,100561.78
2018-08-10T15:05:09.165Z,100558.68
2018-08-10T15:07:36.798Z,100552.77
2018-08-10T15:10:07.136Z,100551.80
2018-08-10T15:12:35.075Z,100547.03
2018-08-10T15:15:02.566Z,100553.46
2018-08-10T15:17:30.218Z,100557.69
2018-08-10T15:19:57.909Z,100555.36
2018-08-10T15:22:25.549Z,100548.04
2018-08-10T15:24:53.188Z,100545.30
2018-08-10T15:27:20.865Z,100543.53
2018-08-10T15:29:48.469Z,100534.45
2018-08-10T15:32:16.214Z,100536.98
2018-08-10T15:34:43.849Z,100533.64
2018-08-10T15:37:11.576Z,100542.06
2018-08-10T15:39:39.969Z,100543.45
2018-08-10T15:42:07.892Z,100541.80
2018-08-10T15:44:35.537Z,100534.05
2018-08-10T15:47:03.253Z,100536.70
2018-08-10T15:49:30.925Z,100535.91
2018-08-10T15:51:58.676Z,100530.51
2018-08-10T15:54:26.554Z,100526.13
2018-08-10T15:56:54.157Z,100529.57
2018-08-10T15:59:21.769Z,100528.87
2018-08-10T16:01:49.374Z,100531.56
2018-08-10T16:04:17.021Z,100524.64
2018-08-10T16:06:44.721Z,100524.57
2018-08-10T16:09:12.700Z,100526.50
2018-08-10T16:11:40.669Z,100519.56
2018-08-10T16:14:09.195Z,100513.66
2018-08-10T16:16:36.800Z,100518.96
2018-08-10T16:19:04.462Z,100511.72
2018-08-10T16:21:32.118Z,100509.87
2018-08-10T16:23:59.773Z,100508.98
2018-08-10T16:26:27.418Z,100508.45
2018-08-10T16:28:55.062Z,100505.25
2018-08-10T16:31:22.802Z,100499.02
2018-08-10T16:33:50.865Z,100499.08
2018-08-10T16:36:22.214Z,100502.57
2018-08-10T16:38:49.862Z,100503.40
2018-08-10T16:41:17.501Z,100506.64
2018-08-10T16:43:45.169Z,100504.73
2018-08-10T16:46:12.858Z,100500.16
2018-08-10T16:48:40.477Z,100493.45
2018-08-10T16:51:08.123Z,100493.69
2018-08-10T16:53:35.889Z,100486.73
2018-08-10T16:56:03.512Z,100488.88
2018-08-10T16:58:31.157Z,100495.59
2018-08-10T17:00:59.073Z,100492.34
2018-08-10T17:03:26.762Z,100492.11
2018-08-10T17:05:54.401Z,100494.23
2018-08-10T17:08:22.118Z,100492.62
2018-08-10T17:10:49.756Z,100489.62
2018-08-10T17:13:17.381Z,100486.40
2018-08-10T17:15:45.106Z,100489.06
2018-08-10T17:18:12.754Z,100492.09
2018-08-10T17:20:40.777Z,100484.84
2018-08-10T17:23:08.484Z,100484.52
2018-08-10T17:25:36.101Z,100489.60
2018-08-10T17:28:03.902Z,100486.40
2018-08-10T17:30:31.640Z,100483.41
2018-08-10T17:32:59.249Z,100485.28
2018-08-10T17:35:26.925Z,100488.23
2018-08-10T17:37:54.561Z,100487.94
2018-08-10T17:40:22.241Z,100490.90
2018-08-10T17:42:49.890Z,100490.61
2018-08-10T17:45:17.678Z,100489.43
2018-08-10T17:47:45.321Z,100490.50
2018-08-10T17:50:15.745Z,100486.53
2018-08-10T17:52:45.834Z,100491.06
2018-08-10T17:55:14.697Z,100487.28
2018-08-10T17:57:42.549Z,100487.25
2018-08-10T18:00:13.785Z,100487.22
2018-08-10T18:02:41.414Z,100486.95
2018-08-10T18:05:11.065Z,100493.91
2018-08-10T18:07:38.961Z,100491.72
2018-08-10T18:10:07.038Z,100490.34
2018-08-10T18:12:36.010Z,100497.29
2018-08-10T18:15:06.030Z,100494.72
2018-08-10T18:17:33.742Z,100487.00
2018-08-10T18:20:01.574Z,100497.41
2018-08-10T18:22:29.330Z,100495.22
2018-08-10T18:24:56.965Z,100504.91
2018-08-10T18:27:24.687Z,100507.02
2018-08-10T18:29:52.397Z,100514.75
2018-08-10T18:32:20.028Z,100519.22
2018-08-10T18:34:47.677Z,100511.42
2018-08-10T18:37:15.271Z,100517.01
2018-08-10T18:39:42.894Z,100518.02
2018-08-10T18:42:10.591Z,100519.84
2018-08-10T18:44:38.205Z,100524.83
2018-08-10T18:47:05.920Z,100519.36
2018-08-10T18:49:33.557Z,100523.80
2018-08-10T18:52:01.266Z,100522.91
2018-08-10T18:54:28.903Z,100525.23
2018-08-10T18:56:56.509Z,100531.05
2018-08-10T18:59:24.233Z,100528.28
2018-08-10T19:01:52.045Z,100532.44
2018-08-10T19:04:19.745Z,100526.41
2018-08-10T19:06:47.368Z,100530.91
2018-08-10T19:09:15.020Z,100533.77
2018-08-10T19:11:42.823Z,100530.80
2018-08-10T19:14:10.536Z,100533.59
2018-08-10T19:16:38.200Z,100536.76
2018-08-10T19:19:05.949Z,100535.81
2018-08-10T19:21:33.565Z,100533.92
2018-08-10T19:24:01.329Z,100543.22
2018-08-10T19:26:29.345Z,100545.59
2018-08-10T19:31:31.426Z,100554.48
2018-08-10T19:33:59.065Z,100562.45
2018-08-10T19:36:26.733Z,100563.37
2018-08-10T19:38:54.406Z,100553.63
2018-08-10T19:41:22.018Z,100566.70
2018-08-10T19:43:49.702Z,100573.80
2018-08-10T19:46:17.955Z,100573.08
2018-08-10T19:48:46.435Z,100580.13
2018-08-10T19:51:14.182Z,100578.27
2018-08-10T19:53:41.946Z,100576.30
2018-08-10T19:56:09.752Z,100581.83
2018-08-10T19:58:37.353Z,100593.16
2018-08-10T20:01:05.020Z,100586.37
2018-08-10T20:03:32.685Z,100592.28
2018-08-10T20:06:00.297Z,100599.17
2018-08-10T20:08:27.959Z,100600.05
2018-08-10T20:10:55.534Z,100600.12
2018-08-10T20:13:23.221Z,100597.30
2018-08-10T20:15:50.920Z,100589.66
2018-08-10T20:18:18.473Z,100599.95
2018-08-10T20:20:46.149Z,100606.99
2018-08-10T20:23:14.434Z,100599.10
2018-08-10T20:25:42.153Z,100602.06
2018-08-10T20:28:10.055Z,100593.89
2018-08-10T20:30:37.625Z,100601.05
2018-08-10T20:33:05.389Z,100604.42
2018-08-10T20:35:33.089Z,100607.25
2018-08-10T20:38:00.845Z,100597.53
2018-08-10T20:40:28.666Z,100605.68
2018-08-10T20:42:56.318Z,100609.82
2018-08-10T20:45:23.969Z,100611.28
2018-08-10T20:47:51.677Z,100608.28
2018-08-10T20:50:20.720Z,100611.15
2018-08-10T20:52:48.733Z,100608.48
2018-08-10T20:55:16.464Z,100615.67
2018-08-10T20:57:44.782Z,100614.92
2018-08-10T21:00:12.658Z,100613.45
2018-08-10T21:02:41.740Z,100615.41
2018-08-10T21:05:09.620Z,100617.70
2018-08-10T21:07:37.380Z,100620.02
2018-08-10T21:10:09.089Z,100622.54
2018-08-10T21:12:37.081Z,100621.81
2018-08-10T21:15:06.589Z,100622.19
2018-08-10T21:17:34.374Z,100624.13
2018-08-10T21:20:02.175Z,100620.67
2018-08-10T21:22:30.106Z,100626.66
2018-08-10T21:24:57.717Z,100614.91
2018-08-10T21:27:25.401Z,100614.81
2018-08-10T21:29:53.045Z,100618.75
2018-08-10T21:32:20.696Z,100617.59
2018-08-10T21:34:48.730Z,100634.17
2018-08-10T21:37:16.421Z,100630.45
2018-08-10T21:39:44.036Z,100632.47
2018-08-10T21:42:11.761Z,100628.53
2018-08-10T21:44:39.400Z,100631.81
2018-08-10T21:47:07.059Z,100637.56
2018-08-10T21:49:34.726Z,100640.91
2018-08-10T21:52:02.876Z,100643.41
2018-08-10T21:54:30.573Z,100649.60
2018-08-10T21:56:58.238Z,100650.53
2018-08-10T21:59:25.896Z,100653.66
2018-08-10T22:01:53.721Z,100652.67
2018-08-10T22:04:21.422Z,100650.75
2018-08-10T22:06:49.380Z,100656.81
2018-08-10T22:09:17.050Z,100657.53
2018-08-10T22:11:44.721Z,100655.84
2018-08-10T22:14:18.114Z,100656.30
2018-08-10T22:16:51.350Z,100656.97
2018-08-10T22:19:18.993Z,100662.78
2018-08-10T22:21:46.797Z,100662.97
2018-08-10T22:24:15.130Z,100661.86
2018-08-10T22:26:43.069Z,100663.02
2018-08-10T22:29:10.869Z,100668.78
2018-08-10T22:31:38.666Z,100672.77
2018-08-10T22:34:06.682Z,100674.14
2018-08-10T22:36:34.374Z,100671.01
2018-08-10T22:39:02.476Z,100671.41
2018-08-10T22:41:30.208Z,100670.64
2018-08-10T22:43:57.802Z,100671.83
2018-08-10T22:46:25.566Z,100675.30
2018-08-10T22:48:53.289Z,100672.95
2018-08-10T22:51:20.993Z,100671.30
2018-08-10T22:53:48.758Z,100678.58
2018-08-10T22:56:16.478Z,100673.78
2018-08-10T22:58:44.144Z,100676.61
2018-08-10T23:01:11.826Z,100675.64
2018-08-10T23:03:39.489Z,100674.47
2018-08-10T23:06:07.173Z,100676.94
2018-08-10T23:08:34.878Z,100669.30
2018-08-10T23:11:02.473Z,100678.16
2018-08-10T23:13:30.097Z,100676.45
2018-08-10T23:15:57.773Z,100680.84
2018-08-10T23:18:25.641Z,100681.39
2018-08-10T23:20:53.301Z,100683.45
2018-08-10T23:23:20.970Z,100681.59
2018-08-10T23:25:48.661Z,100680.29
2018-08-10T23:28:16.241Z,100678.88
2018-08-10T23:30:43.961Z,100688.61
2018-08-10T23:33:11.622Z,100679.72
2018-08-10T23:35:39.266Z,100677.05
2018-08-10T23:38:06.997Z,100679.53
2018-08-10T23:40:34.745Z,100674.94
2018-08-10T23:43:02.582Z,100676.88
2018-08-10T23:45:30.265Z,100672.12
2018-08-10T23:47:57.887Z,100673.44
2018-08-10T23:50:25.549Z,100680.68
2018-08-10T23:52:53.232Z,100676.52
2018-08-10T23:55:20.913Z,100680.81
2018-08-10T23:57:48.514Z,100679.20
